Airfield :
LOGIN :

Register | Disclaimer

   EN    FR    IT 

 










Legend :    VFR   Marginal VFR   IFR   Intensive IFR   Very Intensive IFR
Visi :
Ceiling :
>= 8 km
>= 3000ft
5 to 8 km
1000 to 3000 ft
1500m to 5 km
500 to 1000 ft
800 to 1500m
200 to 500 ft
< 800m
< 200 ft
Symbols :   Thunderstorms  Fog  Heavy snow  Heavy precipitations  Wind > 20 kt
SIGMETs :     Misc.  Thunderstorms  Icing  Turbulence  Mountain Waves  Volcanic Ashes







- Airport Elevation : 2776 ft
- IATA code : VLL


LEVD - Valladolid

CURRENT METAR :
  • 241330Z 22012KT 190V250 CAVOK 26/03 Q1021

EXPIRED METARs :
  • 241300Z 24015KT CAVOK 26/04 Q1021
  • 241230Z 24012KT CAVOK 25/05 Q1022
  • 241200Z 23012KT 200V290 CAVOK 25/05 Q1022
  • 241130Z 22008KT 180V270 CAVOK 23/05 Q1022
  • 241100Z 21007KT 170V250 CAVOK 23/04 Q1023

TAF TAF LEVD
Valid from the 24 at 12:00 until the 25 at 12:00 UTC


241100Z 2412/2512 23008KT CAVOK TX28/2415Z TN10/2506Z
No reported NOTAMs for that airfield.



MET'MAP, your aeronautical weather chart ! - Copyright ORBIFLY December 2007 - Disclaimer

ORBIFLY MET'MAP TEAM :

Programming & Development : Alexandra Zaïnal
Concept & Development : Baudouin d'Aumeries
Co-Development & Prog : Marc-Olivier Méhu
Technical & hardware support : Manuel Goepfert

Contact : metmap@orbifly.com




SOURCES & CREDITS :

   NOAA